Time;durP1;ratioP1;P1;durP2;ratioP2;P2;SDS_P1;SDS_P2;PMS_P1;PMS_P2;Temp;Humidity;BMP_temperature;BMP_pressure;BME280_temperature;BME280_humidity;BME280_pressure;Samples;Min_cycle;Max_cycle;Signal;HPM_P1;HPM_P2
2023/03/15 00:00:58;;;;;;;8.45;2.95;;;5.60;99.90;;;;;;4194486;28;20094;-67
2023/03/15 00:03:02;;;;;;;13.80;3.30;;;5.50;99.90;;;;;;4190504;28;20171;-66
2023/03/15 00:05:03;;;;;;;10.75;2.60;;;5.50;99.90;;;;;;4193819;28;20047;-68
2023/03/15 00:07:04;;;;;;;8.13;2.42;;;5.50;99.90;;;;;;4192427;28;20033;-67
2023/03/15 00:09:05;;;;;;;8.00;2.47;;;5.40;99.90;;;;;;4195919;28;20033;-67
2023/03/15 00:11:06;;;;;;;8.77;2.65;;;5.30;99.90;;;;;;4192119;28;20064;-67
2023/03/15 00:13:07;;;;;;;6.57;2.88;;;5.40;99.90;;;;;;4194713;28;20044;-68
2023/03/15 00:15:10;;;;;;;10.30;3.08;;;5.40;99.90;;;;;;4192985;28;20365;-68
2023/03/15 00:17:15;;;;;;;11.52;3.10;;;5.30;99.90;;;;;;4187486;28;20357;-67
2023/03/15 00:19:15;;;;;;;8.13;3.00;;;5.30;99.90;;;;;;4194859;28;20041;-67
2023/03/15 00:21:16;;;;;;;12.25;3.28;;;5.30;99.90;;;;;;4192522;28;20109;-68
2023/03/15 00:23:17;;;;;;;10.20;3.58;;;5.20;99.90;;;;;;4191581;28;20033;-69
2023/03/15 00:25:17;;;;;;;16.85;4.20;;;5.20;99.90;;;;;;4194437;28;20032;-70
2023/03/15 00:27:18;;;;;;;13.73;3.67;;;5.00;99.90;;;;;;4187596;28;20037;-70
2023/03/15 00:29:19;;;;;;;8.98;3.65;;;5.00;99.90;;;;;;4192331;28;20035;-70
2023/03/15 00:31:22;;;;;;;9.35;3.72;;;4.90;99.90;;;;;;4190473;28;20028;-70
2023/03/15 00:33:23;;;;;;;7.18;3.28;;;4.90;99.90;;;;;;4192660;28;20044;-76
2023/03/15 00:35:24;;;;;;;5.45;2.78;;;4.90;99.90;;;;;;4188815;28;20032;-71
2023/03/15 00:37:25;;;;;;;8.27;3.22;;;4.70;99.90;;;;;;4188663;28;20032;-71
2023/03/15 00:39:25;;;;;;;10.90;3.40;;;4.70;99.90;;;;;;4189545;28;20430;-70
2023/03/15 00:41:26;;;;;;;9.30;3.55;;;4.70;99.90;;;;;;4192143;28;20115;-71
2023/03/15 00:43:26;;;;;;;7.80;3.25;;;4.60;99.90;;;;;;4189692;28;20124;-71
2023/03/15 00:45:27;;;;;;;5.35;2.80;;;4.60;99.90;;;;;;4190548;28;20051;-71
2023/03/15 00:47:27;;;;;;;6.95;3.08;;;4.60;99.90;;;;;;4189719;28;20032;-71
2023/03/15 00:49:28;;;;;;;7.00;3.35;;;4.50;99.90;;;;;;4194880;28;20036;-71
2023/03/15 00:51:29;;;;;;;7.55;3.42;;;4.60;99.90;;;;;;4188808;28;20116;-73
2023/03/15 00:53:29;;;;;;;5.53;3.08;;;4.60;99.90;;;;;;4189863;28;20032;-74
2023/03/15 00:55:30;;;;;;;7.15;3.35;;;4.60;99.90;;;;;;4193559;28;20036;-73
2023/03/15 00:57:33;;;;;;;8.18;3.40;;;4.50;99.90;;;;;;4186755;28;20017;-73
2023/03/15 00:59:34;;;;;;;5.70;3.05;;;4.50;99.90;;;;;;4191288;28;20471;-74
2023/03/15 01:01:35;;;;;;;7.55;3.63;;;4.50;99.90;;;;;;4194436;28;20031;-73
2023/03/15 01:03:36;;;;;;;9.70;3.22;;;4.50;99.90;;;;;;4194982;28;20028;-73
2023/03/15 01:05:36;;;;;;;11.43;3.33;;;4.40;99.90;;;;;;4192969;28;20039;-74
2023/03/15 01:07:37;;;;;;;6.18;2.83;;;4.40;99.90;;;;;;4187701;28;20123;-74
2023/03/15 01:09:37;;;;;;;6.28;3.53;;;4.40;99.90;;;;;;4191786;28;20032;-74
2023/03/15 01:11:38;;;;;;;11.25;3.67;;;4.40;99.90;;;;;;4193926;28;20096;-74
2023/03/15 01:13:39;;;;;;;6.32;3.03;;;4.40;99.90;;;;;;4186919;28;21058;-73
2023/03/15 01:15:44;;;;;;;7.57;3.20;;;4.40;99.90;;;;;;4187890;28;20120;-71
2023/03/15 01:17:45;;;;;;;8.32;3.47;;;4.40;99.90;;;;;;4193747;28;20082;-73
2023/03/15 01:19:46;;;;;;;6.00;2.88;;;4.30;99.90;;;;;;4193503;28;20089;-73
2023/03/15 01:21:46;;;;;;;5.82;2.65;;;4.30;99.90;;;;;;4193591;28;20071;-74
2023/03/15 01:23:47;;;;;;;7.05;2.75;;;4.20;99.90;;;;;;4189638;28;20032;-73
2023/03/15 01:25:48;;;;;;;5.35;2.90;;;4.20;99.90;;;;;;4187503;28;20063;-74
2023/03/15 01:27:48;;;;;;;6.35;2.63;;;4.20;99.90;;;;;;4188527;28;20086;-74
2023/03/15 01:29:49;;;;;;;6.47;2.95;;;4.20;99.90;;;;;;4193488;28;20031;-73
2023/03/15 01:31:49;;;;;;;6.95;2.97;;;4.20;99.90;;;;;;4191794;28;20039;-71
2023/03/15 01:33:50;;;;;;;7.50;2.92;;;4.20;99.90;;;;;;4193483;28;20119;-72
2023/03/15 01:35:58;;;;;;;5.97;2.95;;;4.20;99.90;;;;;;4192872;28;20090;-72
2023/03/15 01:37:59;;;;;;;6.35;2.47;;;4.20;99.90;;;;;;4188273;28;20119;-74
2023/03/15 01:40:00;;;;;;;5.10;2.35;;;4.20;99.90;;;;;;4190683;28;20037;-74
2023/03/15 01:42:01;;;;;;;5.65;2.38;;;4.20;99.90;;;;;;4193522;28;20051;-73
2023/03/15 01:44:02;;;;;;;6.38;2.40;;;4.20;99.90;;;;;;4194121;28;20033;-73
2023/03/15 01:46:24;;;;;;;5.15;2.22;;;4.20;99.90;;;;;;4190812;28;20376;-74
2023/03/15 01:48:28;;;;;;;4.00;2.08;;;4.20;99.90;;;;;;4189790;28;20028;-73
2023/03/15 01:50:29;;;;;;;3.67;1.75;;;4.20;99.90;;;;;;4193501;28;20041;-73
2023/03/15 01:52:34;;;;;;;3.15;1.90;;;4.30;99.90;;;;;;4193464;28;20040;-73
2023/03/15 01:54:46;;;;;;;3.20;1.70;;;4.30;99.90;;;;;;4194154;28;20383;-74
2023/03/15 01:57:11;;;;;;;4.90;1.83;;;4.30;99.90;;;;;;4190065;28;20477;-73
2023/03/15 01:59:19;;;;;;;4.97;1.92;;;4.30;99.90;;;;;;4184049;28;20107;-72
2023/03/15 02:01:20;;;;;;;4.30;2.08;;;4.30;99.90;;;;;;4191681;28;20028;-72
2023/03/15 02:03:26;;;;;;;5.50;2.25;;;4.40;99.90;;;;;;4193969;28;20028;-73
2023/03/15 02:05:31;;;;;;;10.27;2.75;;;4.30;99.90;;;;;;4191461;28;20071;-74
2023/03/15 02:07:33;;;;;;;4.38;1.92;;;4.30;99.90;;;;;;4195001;28;20084;-73
2023/03/15 02:09:46;;;;;;;8.60;2.80;;;4.30;99.90;;;;;;4194686;28;20120;-73
2023/03/15 02:11:47;;;;;;;4.22;3.00;;;4.40;99.90;;;;;;4184477;28;20745;-74
2023/03/15 02:13:50;;;;;;;6.25;2.38;;;4.40;99.90;;;;;;4192361;28;20032;-73
2023/03/15 02:15:52;;;;;;;;;;;4.40;99.90;;;;;;4184699;28;20052;-72
2023/03/15 02:17:52;;;;;;;2.80;1.90;;;4.50;99.90;;;;;;4192016;28;19915;-73
2023/03/15 02:20:34;;;;;;;4.65;2.72;;;4.50;99.90;;;;;;4188436;28;20033;-73
2023/03/15 02:22:47;;;;;;;6.28;2.80;;;4.50;99.90;;;;;;4193249;28;20028;-73
2023/03/15 02:24:47;;;;;;;5.50;3.10;;;4.60;99.90;;;;;;4193096;28;20025;-73
2023/03/15 02:26:53;;;;;;;7.18;2.72;;;4.60;99.90;;;;;;4191875;28;20036;-74
2023/03/15 02:28:54;;;;;;;3.85;2.45;;;4.70;99.90;;;;;;4192517;28;20060;-73
2023/03/15 02:30:56;;;;;;;4.07;2.47;;;4.70;99.90;;;;;;4187634;28;20036;-73
2023/03/15 02:33:00;;;;;;;4.82;1.90;;;4.80;99.90;;;;;;4192852;28;20036;-74
2023/03/15 02:35:00;;;;;;;6.07;2.65;;;4.80;99.90;;;;;;4191656;28;20044;-74
2023/03/15 02:37:01;;;;;;;6.07;2.50;;;4.80;99.90;;;;;;4187814;28;20024;-74
2023/03/15 02:39:16;;;;;;;5.38;2.97;;;4.70;99.90;;;;;;4192759;28;20032;-74
2023/03/15 02:41:32;;;;;;;5.10;2.97;;;4.70;99.90;;;;;;4191501;28;20107;-74
2023/03/15 02:43:34;;;;;;;4.72;2.50;;;4.60;99.90;;;;;;4188452;28;20097;-74
2023/03/15 02:45:36;;;;;;;5.93;3.00;;;4.60;99.90;;;;;;4186109;28;20059;-74
2023/03/15 02:47:38;;;;;;;7.47;3.42;;;4.60;99.90;;;;;;4192095;28;20768;-75
2023/03/15 02:49:42;;;;;;;5.22;2.88;;;4.40;99.90;;;;;;4196034;28;20040;-74
2023/03/15 02:51:43;;;;;;;5.57;2.35;;;4.30;99.90;;;;;;4193583;28;20024;-74
2023/03/15 02:53:43;;;;;;;2.53;2.10;;;4.20;99.90;;;;;;4196597;28;20089;-74
2023/03/15 02:55:44;;;;;;;3.47;1.70;;;4.10;99.90;;;;;;4196295;28;20403;-73
2023/03/15 02:57:45;;;;;;;3.10;1.73;;;4.00;99.90;;;;;;4195273;28;20033;-73
2023/03/15 02:59:46;;;;;;;1.88;1.40;;;4.00;99.90;;;;;;4195624;28;20028;-74
2023/03/15 03:01:47;;;;;;;2.33;1.70;;;3.90;99.90;;;;;;4193748;28;20040;-74
2023/03/15 03:03:47;;;;;;;2.33;1.60;;;4.00;99.90;;;;;;4195866;28;20032;-74
2023/03/15 03:05:48;;;;;;;2.35;1.50;;;3.90;99.90;;;;;;4186850;28;20049;-74
2023/03/15 03:07:49;;;;;;;3.65;1.25;;;3.90;99.90;;;;;;4173544;28;20038;-74
2023/03/15 03:09:50;;;;;;;2.63;1.25;;;3.80;99.90;;;;;;4194425;28;20016;-74
2023/03/15 03:11:50;;;;;;;1.60;1.40;;;3.70;99.90;;;;;;4189565;28;20032;-74
2023/03/15 03:13:51;;;;;;;2.25;1.10;;;3.70;99.90;;;;;;4195149;28;20028;-72
2023/03/15 03:15:57;;;;;;;1.52;1.20;;;3.70;99.90;;;;;;4192376;28;20029;-74
2023/03/15 03:17:57;;;;;;;1.20;1.08;;;3.70;99.90;;;;;;4195179;28;20033;-74
2023/03/15 03:19:58;;;;;;;2.95;0.90;;;3.70;99.90;;;;;;4195897;28;20060;-74
2023/03/15 03:21:59;;;;;;;2.15;1.17;;;3.70;99.90;;;;;;4193613;28;20033;-75
2023/03/15 03:23:59;;;;;;;0.80;0.60;;;3.70;99.90;;;;;;4196033;28;20117;-71
2023/03/15 03:26:01;;;;;;;2.03;0.90;;;3.70;99.90;;;;;;4188058;28;20213;-71
2023/03/15 03:28:03;;;;;;;1.33;0.75;;;3.70;99.90;;;;;;4193900;28;20456;-71
2023/03/15 03:30:06;;;;;;;0.82;0.80;;;3.70;99.90;;;;;;4191427;28;20067;-71
2023/03/15 03:32:07;;;;;;;1.10;1.00;;;3.70;99.90;;;;;;4193019;28;20106;-72
2023/03/15 03:34:09;;;;;;;1.23;1.00;;;3.80;99.90;;;;;;4191493;28;20021;-72
2023/03/15 03:36:11;;;;;;;2.28;0.95;;;3.80;99.90;;;;;;4192455;28;20032;-72
2023/03/15 03:38:13;;;;;;;1.00;0.90;;;3.80;99.90;;;;;;4195598;28;20367;-72
2023/03/15 03:40:13;;;;;;;2.83;1.25;;;3.80;99.90;;;;;;4194825;28;20158;-72
2023/03/15 03:42:14;;;;;;;1.75;1.20;;;3.90;99.90;;;;;;4193637;28;20029;-72
2023/03/15 03:44:15;;;;;;;1.45;1.15;;;3.90;99.90;;;;;;4195296;28;20037;-71
2023/03/15 03:46:15;;;;;;;1.98;1.20;;;3.90;99.90;;;;;;4195557;28;20054;-72
2023/03/15 03:48:16;;;;;;;1.38;1.10;;;3.90;99.90;;;;;;4194838;28;20036;-72
2023/03/15 03:50:16;;;;;;;2.30;1.58;;;3.90;99.90;;;;;;4193703;28;20041;-75
2023/03/15 03:52:17;;;;;;;1.67;1.30;;;4.00;99.90;;;;;;4194603;28;20107;-73
2023/03/15 03:54:20;;;;;;;1.50;1.20;;;4.00;99.90;;;;;;4197807;28;20025;-73
2023/03/15 03:56:20;;;;;;;;;;;4.00;99.90;;;;;;4195437;28;20033;-73
2023/03/15 03:58:21;;;;;;;1.58;1.20;;;4.00;99.90;;;;;;4194371;28;19916;-72
2023/03/15 04:00:22;;;;;;;2.10;1.65;;;4.00;99.90;;;;;;4194608;28;20112;-71
2023/03/15 04:02:23;;;;;;;1.58;1.30;;;4.10;99.90;;;;;;4196564;28;20317;-71
2023/03/15 04:04:25;;;;;;;2.33;1.70;;;4.10;99.90;;;;;;4191202;28;20033;-72
2023/03/15 04:06:25;;;;;;;2.50;1.50;;;4.10;99.90;;;;;;4194048;28;20166;-73
2023/03/15 04:08:26;;;;;;;2.45;1.63;;;4.10;99.90;;;;;;4197808;28;20399;-72
2023/03/15 04:10:26;;;;;;;2.30;1.58;;;4.10;99.90;;;;;;4198098;28;20040;-72
2023/03/15 04:12:27;;;;;;;2.13;1.50;;;4.10;99.90;;;;;;4186970;28;20400;-73
2023/03/15 04:14:28;;;;;;;1.92;1.73;;;4.10;99.90;;;;;;4192886;28;20021;-72
2023/03/15 04:16:29;;;;;;;3.67;1.90;;;4.10;99.90;;;;;;4192696;28;21184;-73
2023/03/15 04:18:30;;;;;;;2.00;1.80;;;4.10;99.90;;;;;;4196178;28;20498;-72
2023/03/15 04:20:33;;;;;;;2.55;1.77;;;4.10;99.90;;;;;;4191280;28;20040;-73
2023/03/15 04:22:33;;;;;;;2.92;2.30;;;4.20;99.90;;;;;;4196943;28;20036;-73
2023/03/15 04:24:35;;;;;;;2.20;2.00;;;4.10;99.90;;;;;;4196968;28;20471;-72
2023/03/15 04:26:35;;;;;;;3.70;2.42;;;4.10;99.90;;;;;;4194557;28;20053;-72
2023/03/15 04:28:36;;;;;;;2.42;2.20;;;4.20;99.90;;;;;;4187886;28;20036;-72
2023/03/15 04:30:37;;;;;;;2.25;1.92;;;4.20;99.90;;;;;;4193462;28;20395;-72
2023/03/15 04:32:38;;;;;;;2.90;2.60;;;4.20;99.90;;;;;;4191412;28;20081;-72
2023/03/15 04:34:38;;;;;;;4.07;2.83;;;4.30;99.90;;;;;;4190793;28;20127;-72
2023/03/15 04:36:41;;;;;;;3.20;2.35;;;4.30;99.90;;;;;;4195134;28;20040;-72
2023/03/15 04:38:45;;;;;;;;;;;4.30;99.90;;;;;;4196052;28;20103;-71
2023/03/15 04:40:45;;;;;;;3.13;2.42;;;4.40;99.90;;;;;;4191991;28;19919;-72
2023/03/15 04:42:46;;;;;;;2.95;2.65;;;4.40;99.90;;;;;;4195799;28;20028;-72
2023/03/15 04:44:46;;;;;;;2.92;2.63;;;4.40;99.90;;;;;;4182602;28;20563;-72
2023/03/15 04:46:47;;;;;;;3.03;2.53;;;4.50;99.90;;;;;;4196797;28;20131;-73
2023/03/15 04:48:47;;;;;;;3.00;2.70;;;4.50;99.90;;;;;;4196948;28;20029;-72
2023/03/15 04:50:48;;;;;;;4.28;3.40;;;4.50;99.90;;;;;;4196563;28;20041;-72
2023/03/15 04:52:49;;;;;;;4.25;3.75;;;4.50;99.90;;;;;;4197070;28;20033;-72
2023/03/15 04:54:50;;;;;;;4.43;3.80;;;4.40;99.90;;;;;;4191577;28;20052;-72
2023/03/15 04:56:51;;;;;;;4.38;3.97;;;4.50;99.90;;;;;;4193240;28;20033;-73
2023/03/15 04:58:51;;;;;;;5.68;4.38;;;4.40;99.90;;;;;;4194556;28;20024;-72
2023/03/15 05:00:52;;;;;;;4.75;4.25;;;4.40;99.90;;;;;;4196718;28;20379;-72
2023/03/15 05:02:53;;;;;;;5.13;4.53;;;4.30;99.90;;;;;;4191924;28;20036;-71
2023/03/15 05:04:54;;;;;;;7.25;5.45;;;4.40;99.90;;;;;;4196083;28;20040;-71
2023/03/15 05:06:54;;;;;;;7.95;6.63;;;4.30;99.90;;;;;;4194928;28;20055;-72
2023/03/15 05:08:55;;;;;;;9.23;6.35;;;4.30;99.90;;;;;;4191843;28;20076;-72
2023/03/15 05:10:56;;;;;;;8.30;6.00;;;4.30;99.90;;;;;;4190223;28;20114;-72
2023/03/15 05:12:56;;;;;;;7.13;5.20;;;4.30;99.90;;;;;;4196870;28;20028;-71
2023/03/15 05:14:57;;;;;;;6.07;5.25;;;4.30;99.90;;;;;;4194469;28;20037;-72
2023/03/15 05:16:58;;;;;;;7.43;6.38;;;4.30;99.90;;;;;;4192429;28;20031;-72
2023/03/15 05:18:59;;;;;;;6.78;5.88;;;4.30;99.90;;;;;;4188953;28;20033;-73
2023/03/15 05:20:59;;;;;;;6.03;5.43;;;4.30;99.90;;;;;;4193730;28;20028;-72
2023/03/15 05:23:00;;;;;;;7.22;6.38;;;4.40;99.90;;;;;;4191888;28;20123;-72
2023/03/15 05:25:00;;;;;;;6.40;5.68;;;4.40;99.90;;;;;;4192942;28;20047;-72
2023/03/15 05:27:01;;;;;;;7.85;6.90;;;4.30;99.90;;;;;;4190685;28;20605;-72
2023/03/15 05:29:02;;;;;;;9.65;7.35;;;4.40;99.90;;;;;;4195210;28;20039;-73
2023/03/15 05:31:03;;;;;;;7.40;6.57;;;4.40;99.90;;;;;;4194515;28;20462;-72
2023/03/15 05:33:03;;;;;;;10.82;7.20;;;4.40;99.90;;;;;;4185498;28;20041;-72
2023/03/15 05:35:06;;;;;;;12.02;7.88;;;4.30;99.90;;;;;;4193612;28;20443;-75
2023/03/15 05:37:06;;;;;;;9.90;8.20;;;4.30;99.90;;;;;;4195624;28;20040;-75
2023/03/15 05:39:07;;;;;;;10.45;8.38;;;4.40;99.90;;;;;;4193177;28;20029;-74
2023/03/15 05:41:08;;;;;;;11.57;8.57;;;4.40;99.90;;;;;;4190431;28;20029;-74
2023/03/15 05:43:09;;;;;;;10.38;8.43;;;4.40;99.90;;;;;;4193230;28;20434;-72
2023/03/15 05:45:09;;;;;;;12.18;8.40;;;4.40;99.90;;;;;;4194965;28;20032;-73
2023/03/15 05:47:10;;;;;;;12.40;9.35;;;4.40;99.90;;;;;;4194346;28;20407;-72
2023/03/15 05:49:11;;;;;;;11.60;8.75;;;4.40;99.90;;;;;;4193225;28;20105;-72
2023/03/15 05:51:12;;;;;;;10.07;7.95;;;4.40;99.90;;;;;;4191989;28;20099;-70
2023/03/15 05:53:12;;;;;;;12.38;8.98;;;4.40;99.90;;;;;;4192827;28;20032;-74
2023/03/15 05:55:13;;;;;;;12.18;8.93;;;4.50;99.90;;;;;;4192230;28;20526;-75
2023/03/15 05:57:13;;;;;;;11.18;8.88;;;4.50;99.90;;;;;;4191370;28;20052;-74
2023/03/15 05:59:14;;;;;;;10.68;8.77;;;4.50;99.90;;;;;;4194055;28;20035;-74
2023/03/15 06:01:14;;;;;;;12.00;8.68;;;4.50;99.90;;;;;;4193651;28;20032;-75
2023/03/15 06:03:15;;;;;;;10.13;8.25;;;4.60;99.90;;;;;;4195163;28;20057;-75
2023/03/15 06:05:16;;;;;;;10.85;8.30;;;4.60;99.90;;;;;;4192778;28;20510;-74
2023/03/15 06:07:16;;;;;;;11.52;8.77;;;4.60;99.90;;;;;;4192795;28;20483;-75
2023/03/15 06:09:17;;;;;;;13.40;9.90;;;4.70;99.90;;;;;;4191922;28;20029;-74
2023/03/15 06:11:18;;;;;;;12.20;9.65;;;4.70;99.90;;;;;;4194691;28;20052;-75
2023/03/15 06:13:18;;;;;;;11.55;9.05;;;4.60;99.90;;;;;;4192057;28;20115;-75
2023/03/15 06:15:19;;;;;;;11.57;8.98;;;4.60;99.90;;;;;;4189372;28;20111;-76
2023/03/15 06:17:19;;;;;;;12.82;9.65;;;4.70;99.90;;;;;;4193695;28;20029;-75
2023/03/15 06:19:21;;;;;;;15.07;10.23;;;4.60;99.90;;;;;;4188380;28;20052;-75
2023/03/15 06:21:21;;;;;;;14.43;8.90;;;4.60;99.90;;;;;;4192750;28;20028;-75
2023/03/15 06:23:22;;;;;;;12.70;10.10;;;4.60;99.90;;;;;;4191473;28;20387;-74
2023/03/15 06:25:23;;;;;;;12.68;8.90;;;4.70;99.90;;;;;;4189876;28;20032;-75
2023/03/15 06:27:24;;;;;;;14.82;10.32;;;4.70;99.90;;;;;;4191656;28;20029;-72
2023/03/15 06:29:24;;;;;;;12.65;9.75;;;4.70;99.90;;;;;;4190842;28;20485;-73
2023/03/15 06:31:25;;;;;;;11.18;8.93;;;4.70;99.90;;;;;;4190278;28;20215;-75
2023/03/15 06:33:26;;;;;;;13.00;10.00;;;4.70;99.90;;;;;;4193169;28;20051;-75
2023/03/15 06:35:26;;;;;;;11.68;9.00;;;4.70;99.90;;;;;;4191754;28;20083;-75
2023/03/15 06:37:27;;;;;;;13.43;9.23;;;4.70;99.90;;;;;;4190907;28;20457;-75
2023/03/15 06:39:27;;;;;;;10.40;8.48;;;4.70;99.90;;;;;;4193970;28;20055;-74
2023/03/15 06:41:28;;;;;;;12.18;8.70;;;4.80;99.90;;;;;;4194066;28;20041;-76
2023/03/15 06:43:29;;;;;;;11.73;9.27;;;4.80;99.90;;;;;;4190552;28;20024;-75
2023/03/15 06:45:30;;;;;;;12.13;8.77;;;4.80;99.90;;;;;;4195562;28;20094;-75
2023/03/15 06:47:31;;;;;;;13.95;8.68;;;4.80;99.90;;;;;;4188383;28;20511;-79
2023/03/15 06:49:32;;;;;;;12.88;9.25;;;4.80;99.90;;;;;;4189971;28;20029;-77
2023/03/15 06:51:32;;;;;;;14.00;9.52;;;4.80;99.90;;;;;;4191764;28;24461;-77
2023/03/15 06:53:33;;;;;;;11.95;8.90;;;4.90;99.90;;;;;;4193320;28;20510;-76
2023/03/15 06:55:34;;;;;;;13.13;8.40;;;4.90;99.90;;;;;;4190901;28;20038;-77
2023/03/15 06:57:34;;;;;;;13.23;9.10;;;4.90;99.90;;;;;;4193317;28;20464;-76
2023/03/15 06:59:35;;;;;;;10.13;7.38;;;5.00;99.90;;;;;;4193910;28;20028;-76
2023/03/15 07:01:35;;;;;;;11.18;8.45;;;5.00;99.90;;;;;;4192825;28;20028;-76
2023/03/15 07:03:36;;;;;;;9.57;7.57;;;5.00;99.90;;;;;;4194223;28;20036;-76
2023/03/15 07:05:36;;;;;;;10.88;7.70;;;5.00;99.90;;;;;;4180779;28;20040;-77
2023/03/15 07:07:37;;;;;;;11.65;7.93;;;5.10;99.90;;;;;;4191617;28;20029;-77
2023/03/15 07:09:39;;;;;;;11.18;8.15;;;5.10;99.90;;;;;;4179156;28;20041;-77
2023/03/15 07:11:40;;;;;;;11.18;7.85;;;5.20;99.90;;;;;;4191608;28;20082;-78
2023/03/15 07:13:40;;;;;;;10.82;8.75;;;5.20;99.90;;;;;;4194894;28;20046;-78
2023/03/15 07:15:41;;;;;;;16.33;9.35;;;5.30;99.90;;;;;;4193687;28;20028;-78
2023/03/15 07:17:42;;;;;;;12.10;8.82;;;5.30;99.90;;;;;;4188467;28;20025;-78
2023/03/15 07:19:42;;;;;;;12.75;8.73;;;5.50;99.90;;;;;;4197097;28;20029;-78
2023/03/15 07:21:43;;;;;;;13.68;9.50;;;5.60;99.90;;;;;;4182115;28;20424;-78
2023/03/15 07:23:43;;;;;;;16.17;10.43;;;5.90;99.90;;;;;;4192737;28;20079;-78
2023/03/15 07:25:46;;;;;;;12.85;8.55;;;6.20;99.90;;;;;;4192577;28;20032;-76
2023/03/15 07:27:47;;;;;;;11.00;7.95;;;6.30;99.90;;;;;;4184944;28;20456;-78
2023/03/15 07:29:48;;;;;;;14.05;8.40;;;6.40;99.90;;;;;;4190541;28;20032;-77
2023/03/15 07:31:49;;;;;;;13.48;7.90;;;6.50;99.90;;;;;;4187286;28;20033;-77
2023/03/15 07:33:50;;;;;;;17.17;8.75;;;6.50;99.90;;;;;;4190485;28;20093;-77
2023/03/15 07:35:54;;;;;;;11.35;7.82;;;6.40;99.90;;;;;;4191241;28;20063;-77
2023/03/15 07:37:54;;;;;;;10.95;7.82;;;6.40;99.90;;;;;;4192800;28;20036;-74
2023/03/15 07:39:57;;;;;;;12.20;8.27;;;6.30;99.90;;;;;;4194530;28;20028;-75
2023/03/15 07:41:58;;;;;;;9.68;6.95;;;6.30;99.90;;;;;;4195479;28;20414;-78
2023/03/15 07:43:59;;;;;;;11.30;7.43;;;6.30;99.90;;;;;;4193050;28;20060;-78
2023/03/15 07:46:00;;;;;;;12.85;8.25;;;6.30;99.90;;;;;;4194977;28;20032;-74
2023/03/15 07:48:00;;;;;;;11.43;8.15;;;6.30;99.90;;;;;;4192269;28;20107;-74
2023/03/15 07:50:02;;;;;;;11.55;8.10;;;6.30;99.90;;;;;;4193064;28;20025;-74
2023/03/15 07:52:03;;;;;;;16.30;8.93;;;6.30;99.90;;;;;;4191908;28;20044;-72
2023/03/15 07:54:04;;;;;;;11.80;8.90;;;6.30;99.90;;;;;;4196652;28;20040;-73
2023/03/15 07:56:05;;;;;;;16.10;9.75;;;6.20;99.90;;;;;;4182179;28;20025;-73
2023/03/15 07:58:05;;;;;;;16.73;9.63;;;6.10;99.90;;;;;;4195958;28;20033;-73
2023/03/15 08:00:07;;;;;;;13.93;8.68;;;6.10;99.90;;;;;;4195460;28;20440;-73
2023/03/15 08:02:12;;;;;;;10.52;7.53;;;6.10;99.90;;;;;;4197946;28;20040;-74
2023/03/15 08:04:14;;;;;;;11.20;8.23;;;6.20;99.90;;;;;;4196841;28;20032;-73
2023/03/15 08:06:14;;;;;;;12.50;8.68;;;6.20;99.90;;;;;;4196188;28;20387;-72
2023/03/15 08:08:15;;;;;;;15.10;9.98;;;6.20;99.90;;;;;;4194918;28;20057;-75
2023/03/15 08:10:17;;;;;;;15.23;10.48;;;6.20;99.90;;;;;;4196708;28;20029;-75
2023/03/15 08:12:17;;;;;;;12.43;9.52;;;6.20;99.90;;;;;;4197862;28;20029;-75
2023/03/15 08:14:18;;;;;;;12.85;9.18;;;6.20;99.90;;;;;;4197589;28;20081;-75
2023/03/15 08:16:18;;;;;;;13.68;8.80;;;6.20;99.90;;;;;;4190881;28;20391;-76
2023/03/15 08:18:19;;;;;;;14.57;9.50;;;6.20;99.90;;;;;;4189353;28;20105;-78
2023/03/15 08:20:20;;;;;;;13.38;9.25;;;6.30;99.90;;;;;;4195633;28;20021;-75
2023/03/15 08:22:20;;;;;;;14.57;9.57;;;6.30;99.90;;;;;;4197179;28;20059;-76
2023/03/15 08:24:22;;;;;;;13.85;9.27;;;6.30;99.90;;;;;;4197079;28;20036;-75
2023/03/15 08:26:22;;;;;;;17.75;9.73;;;6.30;99.90;;;;;;4194193;28;20029;-75
2023/03/15 08:28:23;;;;;;;15.50;9.70;;;6.30;99.90;;;;;;4196806;28;20043;-75
2023/03/15 08:30:23;;;;;;;14.43;9.45;;;6.30;99.90;;;;;;4193773;28;20452;-75
2023/03/15 08:32:24;;;;;;;11.77;8.32;;;6.30;99.90;;;;;;4197393;28;20033;-76
2023/03/15 08:34:25;;;;;;;12.07;8.60;;;6.40;99.90;;;;;;4196968;28;20100;-75
2023/03/15 08:36:25;;;;;;;11.75;7.82;;;6.50;99.90;;;;;;4195850;28;20146;-72
2023/03/15 08:38:26;;;;;;;14.63;8.52;;;6.70;99.90;;;;;;4195430;28;20086;-74
2023/03/15 08:40:28;;;;;;;10.60;7.28;;;6.80;99.90;;;;;;4195905;28;20063;-75
2023/03/15 08:42:29;;;;;;;10.18;7.22;;;6.80;99.90;;;;;;4196462;28;20052;-75
2023/03/15 08:44:30;;;;;;;12.65;9.05;;;7.00;99.90;;;;;;4196518;28;20040;-75
2023/03/15 08:46:31;;;;;;;14.43;8.32;;;7.10;99.90;;;;;;4197424;28;20418;-74
2023/03/15 08:48:32;;;;;;;10.43;6.80;;;7.30;99.90;;;;;;4195269;28;20044;-75
2023/03/15 08:50:33;;;;;;;10.95;7.47;;;7.40;99.90;;;;;;4195351;28;20109;-74
2023/03/15 08:52:33;;;;;;;10.85;7.18;;;7.50;99.90;;;;;;4196011;28;20066;-75
2023/03/15 08:54:34;;;;;;;11.43;7.75;;;7.50;99.90;;;;;;4196346;28;20040;-75
2023/03/15 08:56:35;;;;;;;11.30;7.03;;;7.50;99.90;;;;;;4195780;28;20049;-74
2023/03/15 08:58:36;;;;;;;9.20;6.47;;;7.50;99.90;;;;;;4184789;28;20044;-75
2023/03/15 09:00:36;;;;;;;12.63;7.00;;;7.60;99.90;;;;;;4195377;28;20352;-75
2023/03/15 09:02:37;;;;;;;9.57;7.13;;;7.60;99.90;;;;;;4196632;28;20028;-74
2023/03/15 09:04:37;;;;;;;11.07;7.22;;;7.70;99.90;;;;;;4194446;28;20043;-72
2023/03/15 09:06:38;;;;;;;9.90;7.32;;;7.80;99.90;;;;;;4191720;28;20483;-72
2023/03/15 09:08:39;;;;;;;11.10;7.18;;;7.80;99.90;;;;;;4182982;28;20033;-72
2023/03/15 09:10:39;;;;;;;10.25;6.53;;;7.80;99.90;;;;;;4194089;28;20510;-72
2023/03/15 09:12:45;;;;;;;8.52;6.10;;;7.90;99.90;;;;;;4196509;28;20040;-72
2023/03/15 09:14:45;;;;;;;7.90;5.70;;;7.90;99.90;;;;;;4196037;28;20129;-70
2023/03/15 09:16:46;;;;;;;11.05;6.93;;;7.90;99.90;;;;;;4186842;28;20033;-71
2023/03/15 09:18:47;;;;;;;8.95;6.18;;;8.00;99.90;;;;;;4181207;28;20112;-72
2023/03/15 09:20:48;;;;;;;9.60;6.25;;;8.00;99.90;;;;;;4191618;28;20427;-72
2023/03/15 09:22:51;;;;;;;11.07;6.70;;;8.10;99.90;;;;;;4196636;28;20028;-72
2023/03/15 09:24:52;;;;;;;10.38;6.82;;;8.10;99.90;;;;;;4193834;28;20038;-72
2023/03/15 09:26:52;;;;;;;10.10;6.78;;;8.20;99.90;;;;;;4194266;28;20041;-72
2023/03/15 09:28:53;;;;;;;11.93;6.97;;;8.20;99.90;;;;;;4194164;28;20059;-72
2023/03/15 09:30:54;;;;;;;10.23;6.68;;;8.30;99.90;;;;;;4197496;28;20028;-72
2023/03/15 09:32:55;;;;;;;11.88;6.70;;;8.40;99.90;;;;;;4196014;28;20040;-72
2023/03/15 09:34:56;;;;;;;9.75;6.28;;;8.40;99.90;;;;;;4195861;28;20037;-72
2023/03/15 09:36:56;;;;;;;7.88;5.63;;;8.50;99.90;;;;;;4187242;28;20388;-70
2023/03/15 09:38:57;;;;;;;9.93;7.18;;;8.50;99.90;;;;;;4181333;28;20033;-71
2023/03/15 09:40:59;;;;;;;8.68;5.80;;;8.50;99.90;;;;;;4190790;28;20025;-71
2023/03/15 09:43:05;;;;;;;11.38;6.15;;;8.50;99.90;;;;;;4195549;28;20116;-73
2023/03/15 09:45:09;;;;;;;9.55;6.22;;;8.60;99.90;;;;;;4195214;28;20048;-74
2023/03/15 09:47:27;;;;;;;9.48;6.18;;;8.70;99.90;;;;;;4192738;28;20498;-72
2023/03/15 09:49:46;;;;;;;9.82;6.57;;;8.80;99.90;;;;;;4178831;28;20040;-72
2023/03/15 09:51:58;;;;;;;15.05;6.10;;;8.90;99.90;;;;;;4178319;28;20047;-72
2023/03/15 09:54:04;;;;;;;9.60;5.93;;;9.00;99.90;;;;;;4178703;28;20036;-72
2023/03/15 09:56:24;;;;;;;8.10;5.07;;;9.00;99.90;;;;;;4187150;28;20029;-73
2023/03/15 09:58:31;;;;;;;10.50;5.60;;;9.10;99.90;;;;;;4185834;28;20035;-73
2023/03/15 10:00:32;;;;;;;10.27;5.18;;;9.20;99.90;;;;;;4192638;28;20067;-72
2023/03/15 10:02:32;;;;;;;8.35;5.78;;;9.20;99.90;;;;;;4194750;28;20028;-73
2023/03/15 10:04:39;;;;;;;13.00;6.20;;;9.20;99.90;;;;;;4190443;28;20391;-72
2023/03/15 10:06:45;;;;;;;9.50;6.28;;;9.30;99.90;;;;;;4187317;28;20801;-72
2023/03/15 10:08:46;;;;;;;7.65;5.45;;;9.40;99.90;;;;;;4195961;28;20094;-72
2023/03/15 10:11:20;;;;;;;8.90;5.60;;;9.50;99.90;;;;;;4197352;28;20036;-68
2023/03/15 10:13:24;;;;;;;13.05;5.72;;;9.60;99.90;;;;;;4194574;28;20127;-72
2023/03/15 10:16:12;;;;;;;11.68;5.82;;;9.60;99.90;;;;;;4194016;28;20062;-72
2023/03/15 10:18:26;;;;;;;9.75;5.15;;;9.70;99.90;;;;;;4129310;28;20053;-73
2023/03/15 10:20:34;;;;;;;9.43;4.78;;;9.80;99.90;;;;;;4188887;28;20582;-70
2023/03/15 10:22:51;;;;;;;7.93;4.75;;;9.80;99.90;;;;;;4195765;28;20028;-72
2023/03/15 10:25:24;;;;;;;7.32;4.68;;;9.80;99.90;;;;;;4195796;28;20029;-72
2023/03/15 10:27:48;;;;;;;7.20;4.47;;;9.90;99.90;;;;;;4195512;28;20051;-72
2023/03/15 10:29:50;;;;;;;;;;;9.90;99.90;;;;;;4194801;28;20471;-71
2023/03/15 10:31:53;;;;;;;7.38;3.83;;;9.90;99.90;;;;;;4195360;28;20006;-71
2023/03/15 10:33:54;;;;;;;8.30;4.15;;;9.90;99.90;;;;;;4196781;28;20021;-72
2023/03/15 10:35:55;;;;;;;8.73;4.47;;;9.90;99.90;;;;;;4195476;28;20029;-72
2023/03/15 10:37:55;;;;;;;7.20;4.38;;;10.00;99.90;;;;;;4195290;28;20029;-72
2023/03/15 10:39:58;;;;;;;8.45;4.50;;;10.00;99.90;;;;;;4195967;28;20383;-72
2023/03/15 10:41:59;;;;;;;9.48;4.38;;;10.00;99.90;;;;;;4189185;28;20116;-71